createdAt,value
2018-09-13T00:00:24.058Z,100338.28
2018-09-13T00:00:59.588Z,100340.30
2018-09-13T00:01:34.781Z,100336.81
2018-09-13T00:02:10.108Z,100337.28
2018-09-13T00:02:45.398Z,100338.33
2018-09-13T00:03:20.754Z,100334.89
2018-09-13T00:03:56.204Z,100333.34
2018-09-13T00:04:31.433Z,100339.80
2018-09-13T00:05:07.445Z,100335.70
2018-09-13T00:05:42.917Z,100339.16
2018-09-13T00:06:19.142Z,100337.52
2018-09-13T00:06:54.563Z,100328.57
2018-09-13T00:07:30.420Z,100338.59
2018-09-13T00:08:06.282Z,100335.70
2018-09-13T00:08:41.091Z,100338.59
2018-09-13T00:09:16.745Z,100338.96
2018-09-13T00:09:52.014Z,100345.15
2018-09-13T00:10:27.693Z,100345.15
2018-09-13T00:11:02.948Z,100345.72
2018-09-13T00:11:39.350Z,100343.20
2018-09-13T00:12:14.662Z,100344.28
2018-09-13T00:12:49.904Z,100345.79
2018-09-13T00:13:25.188Z,100346.73
2018-09-13T00:14:00.454Z,100344.38
2018-09-13T00:14:35.666Z,100341.59
2018-09-13T00:15:11.057Z,100339.97
2018-09-13T00:15:46.290Z,100332.52
2018-09-13T00:16:21.717Z,100339.34
2018-09-13T00:16:56.918Z,100338.86
2018-09-13T00:17:32.163Z,100335.97
2018-09-13T00:18:07.381Z,100331.37
2018-09-13T00:18:42.759Z,100332.41
2018-09-13T00:19:17.884Z,100325.95
2018-09-13T00:19:53.110Z,100325.95
2018-09-13T00:20:28.293Z,100325.72
2018-09-13T00:21:03.556Z,100321.42
2018-09-13T00:21:38.746Z,100324.14
2018-09-13T00:22:14.270Z,100326.66
2018-09-13T00:22:49.532Z,100322.26
2018-09-13T00:23:24.723Z,100320.44
2018-09-13T00:23:59.962Z,100316.14
2018-09-13T00:24:35.145Z,100313.25
2018-09-13T00:25:10.405Z,100314.66
2018-09-13T00:25:45.709Z,100312.98
2018-09-13T00:26:20.959Z,100316.44
2018-09-13T00:26:56.178Z,100314.52
2018-09-13T00:27:31.399Z,100322.59
2018-09-13T00:28:06.794Z,100320.06
2018-09-13T00:28:42.170Z,100318.05
2018-09-13T00:29:17.418Z,100318.63
2018-09-13T00:29:53.514Z,100321.91
2018-09-13T00:30:28.726Z,100319.93
2018-09-13T00:31:04.016Z,100319.93
2018-09-13T00:31:39.287Z,100317.14
2018-09-13T00:32:14.604Z,100312.81
2018-09-13T00:32:49.846Z,100317.41
2018-09-13T00:33:25.071Z,100317.61
2018-09-13T00:34:00.297Z,100308.03
2018-09-13T00:34:35.520Z,100308.77
2018-09-13T00:35:11.346Z,100316.62
2018-09-13T00:35:46.717Z,100310.34
2018-09-13T00:36:21.984Z,100310.59
2018-09-13T00:36:57.230Z,100310.55
2018-09-13T00:37:32.425Z,100313.07
2018-09-13T00:38:08.070Z,100316.16
2018-09-13T00:38:43.874Z,100318.14
2018-09-13T00:39:19.139Z,100320.15
2018-09-13T00:39:54.379Z,100313.23
2018-09-13T00:40:29.570Z,100318.09
2018-09-13T00:41:04.847Z,100325.12
2018-09-13T00:41:40.313Z,100321.66
2018-09-13T00:42:15.703Z,100318.47
2018-09-13T00:42:50.930Z,100327.07
2018-09-13T00:43:26.122Z,100322.03
2018-09-13T00:44:01.473Z,100325.86
2018-09-13T00:44:36.693Z,100321.28
2018-09-13T00:45:11.973Z,100325.16
2018-09-13T00:45:47.260Z,100329.32
2018-09-13T00:46:22.519Z,100329.79
2018-09-13T00:46:57.718Z,100330.59
2018-09-13T00:47:32.938Z,100327.12
2018-09-13T00:48:08.509Z,100328.16
2018-09-13T00:48:43.885Z,100327.33
2018-09-13T00:49:19.136Z,100331.53
2018-09-13T00:49:54.371Z,100332.70
2018-09-13T00:50:29.583Z,100335.92
2018-09-13T00:51:05.155Z,100335.83
2018-09-13T00:51:40.443Z,100333.73
2018-09-13T00:52:15.837Z,100330.56
2018-09-13T00:52:51.073Z,100334.20
2018-09-13T00:53:26.297Z,100333.92
2018-09-13T00:54:01.691Z,100334.02
2018-09-13T00:54:36.901Z,100339.36
2018-09-13T00:55:12.189Z,100337.02
2018-09-13T00:55:47.646Z,100332.34
2018-09-13T00:56:22.904Z,100335.04
2018-09-13T00:56:58.096Z,100335.61
2018-09-13T00:57:33.293Z,100329.82
2018-09-13T00:58:08.498Z,100334.59
2018-09-13T00:58:43.837Z,100333.04
2018-09-13T00:59:19.057Z,100335.91
2018-09-13T00:59:54.276Z,100329.98
2018-09-13T01:00:29.544Z,100324.97
2018-09-13T01:01:04.766Z,100327.11
2018-09-13T01:01:40.076Z,100327.36
2018-09-13T01:02:15.718Z,100328.10
2018-09-13T01:02:51.375Z,100330.30
2018-09-13T01:03:26.574Z,100326.94
2018-09-13T01:04:01.782Z,100326.56
2018-09-13T01:04:36.993Z,100320.24
2018-09-13T01:05:12.330Z,100321.55
2018-09-13T01:05:47.604Z,100320.14
2018-09-13T01:06:22.861Z,100321.08
2018-09-13T01:06:58.066Z,100316.41
2018-09-13T01:07:33.291Z,100322.86
2018-09-13T01:08:08.512Z,100318.93
2018-09-13T01:08:43.835Z,100318.14
2018-09-13T01:09:19.145Z,100317.52
2018-09-13T01:09:54.384Z,100323.75
2018-09-13T01:10:29.603Z,100311.82
2018-09-13T01:11:04.866Z,100318.70
2018-09-13T01:11:40.544Z,100315.80
2018-09-13T01:12:15.959Z,100319.16
2018-09-13T01:12:51.280Z,100318.52
2018-09-13T01:13:26.509Z,100318.37
2018-09-13T01:14:01.754Z,100319.77
2018-09-13T01:14:36.942Z,100315.84
2018-09-13T01:15:12.395Z,100314.26
2018-09-13T01:15:47.718Z,100309.48
2018-09-13T01:16:22.985Z,100312.48
2018-09-13T01:16:58.183Z,100308.09
2018-09-13T01:17:33.790Z,100304.16
2018-09-13T01:18:09.026Z,100304.06
2018-09-13T01:18:44.974Z,100304.06
2018-09-13T01:19:19.693Z,100305.47
2018-09-13T01:19:55.139Z,100302.10
2018-09-13T01:20:30.474Z,100302.20
2018-09-13T01:21:06.275Z,100300.05
2018-09-13T01:21:41.621Z,100297.43
2018-09-13T01:22:17.397Z,100293.88
2018-09-13T01:22:52.656Z,100294.25
2018-09-13T01:23:27.861Z,100291.63
2018-09-13T01:24:03.056Z,100288.77
2018-09-13T01:24:38.243Z,100293.59
2018-09-13T01:25:13.631Z,100290.55
2018-09-13T01:25:49.082Z,100285.03
2018-09-13T01:26:24.370Z,100286.34
2018-09-13T01:26:59.591Z,100290.64
2018-09-13T01:27:34.835Z,100290.93
2018-09-13T01:28:10.037Z,100279.94
2018-09-13T01:28:45.546Z,100292.09
2018-09-13T01:29:20.967Z,100290.41
2018-09-13T01:29:56.797Z,100290.31
2018-09-13T01:30:31.994Z,100287.23
2018-09-13T01:31:07.262Z,100291.52
2018-09-13T01:31:42.655Z,100291.63
2018-09-13T01:32:17.874Z,100290.31
2018-09-13T01:32:52.618Z,100286.95
2018-09-13T01:33:27.814Z,100291.25
2018-09-13T01:34:03.018Z,100289.29
2018-09-13T01:34:38.558Z,100289.88
2018-09-13T01:35:13.885Z,100281.84
2018-09-13T01:35:49.334Z,100287.17
2018-09-13T01:36:24.534Z,100286.98
2018-09-13T01:36:59.805Z,100286.52
2018-09-13T01:37:34.979Z,100281.09
2018-09-13T01:38:10.363Z,100289.88
2018-09-13T01:38:46.006Z,100285.64
2018-09-13T01:39:21.375Z,100282.69
2018-09-13T01:39:56.562Z,100287.68
2018-09-13T01:40:31.756Z,100299.08
2018-09-13T01:41:07.028Z,100292.91
2018-09-13T01:41:42.519Z,100304.32
2018-09-13T01:42:18.275Z,100301.89
2018-09-13T01:42:53.494Z,100301.70
2018-09-13T01:43:28.710Z,100301.80
2018-09-13T01:44:03.962Z,100303.11
2018-09-13T01:44:39.176Z,100302.27
2018-09-13T01:45:14.413Z,100297.78
2018-09-13T01:45:49.723Z,100296.94
2018-09-13T01:46:24.912Z,100294.70
2018-09-13T01:47:00.120Z,100291.11
2018-09-13T01:47:35.319Z,100298.02
2018-09-13T01:48:10.688Z,100286.47
2018-09-13T01:48:46.066Z,100286.94
2018-09-13T01:49:21.341Z,100292.83
2018-09-13T01:49:56.546Z,100282.27
2018-09-13T01:50:31.763Z,100284.00
2018-09-13T01:51:07.050Z,100285.63
2018-09-13T01:51:42.362Z,100278.98
2018-09-13T01:52:17.811Z,100290.48
2018-09-13T01:52:53.002Z,100292.92
2018-09-13T01:53:28.206Z,100288.28
2018-09-13T01:54:03.423Z,100287.41
2018-09-13T01:54:38.966Z,100293.01
2018-09-13T01:55:14.310Z,100286.12
2018-09-13T01:55:49.684Z,100287.94
2018-09-13T01:56:24.880Z,100286.63
2018-09-13T01:57:00.074Z,100285.52
2018-09-13T01:57:35.355Z,100285.23
2018-09-13T01:58:10.697Z,100290.71
2018-09-13T01:58:46.034Z,100289.03
2018-09-13T01:59:21.265Z,100290.34
2018-09-13T01:59:56.840Z,100288.50
2018-09-13T02:00:32.388Z,100290.75
2018-09-13T02:01:07.647Z,100295.82
2018-09-13T02:01:42.921Z,100290.22
2018-09-13T02:02:18.309Z,100293.77
2018-09-13T02:02:53.536Z,100296.19
2018-09-13T02:03:28.731Z,100301.42
2018-09-13T02:04:04.182Z,100299.66
2018-09-13T02:04:39.464Z,100300.12
2018-09-13T02:05:14.732Z,100303.30
2018-09-13T02:05:50.069Z,100303.86
2018-09-13T02:06:25.238Z,100301.80
2018-09-13T02:07:00.447Z,100298.53
2018-09-13T02:07:35.674Z,100301.33
2018-09-13T02:08:10.905Z,100302.92
2018-09-13T02:08:46.426Z,100299.28
2018-09-13T02:09:21.630Z,100303.80
2018-09-13T02:09:56.822Z,100301.17
2018-09-13T02:10:32.018Z,100298.94
2018-09-13T02:11:07.282Z,100302.86
2018-09-13T02:11:42.607Z,100299.21
2018-09-13T02:12:17.961Z,100300.52
2018-09-13T02:12:53.161Z,100303.70
2018-09-13T02:13:28.373Z,100298.81
2018-09-13T02:14:03.560Z,100298.81
2018-09-13T02:14:38.786Z,100296.19
2018-09-13T02:15:14.264Z,100298.19
2018-09-13T02:15:49.788Z,100297.41
2018-09-13T02:16:24.999Z,100297.72
2018-09-13T02:17:00.205Z,100300.42
2018-09-13T02:17:35.399Z,100299.43
2018-09-13T02:18:10.171Z,100297.00
2018-09-13T02:18:45.575Z,100301.08
2018-09-13T02:19:20.801Z,100298.59
2018-09-13T02:19:56.032Z,100296.59
2018-09-13T02:20:31.216Z,100297.99
2018-09-13T02:21:06.473Z,100294.53
2018-09-13T02:21:41.772Z,100294.84
2018-09-13T02:22:17.039Z,100304.44
2018-09-13T02:22:52.818Z,100302.84
2018-09-13T02:23:28.268Z,100300.60
2018-09-13T02:24:03.505Z,100299.42
2018-09-13T02:24:38.729Z,100298.11
2018-09-13T02:25:14.349Z,100298.45
2018-09-13T02:25:49.634Z,100296.81
2018-09-13T02:26:24.978Z,100297.66
2018-09-13T02:27:00.206Z,100302.14
2018-09-13T02:27:35.395Z,100302.50
2018-09-13T02:28:10.764Z,100296.52
2018-09-13T02:28:46.125Z,100296.12
2018-09-13T02:29:21.364Z,100298.30
2018-09-13T02:29:56.661Z,100298.59
2018-09-13T02:30:31.842Z,100299.43
2018-09-13T02:31:07.039Z,100299.30
2018-09-13T02:31:42.840Z,100301.30
2018-09-13T02:32:18.180Z,100295.38
2018-09-13T02:32:53.663Z,100297.62
2018-09-13T02:33:28.857Z,100292.51
2018-09-13T02:34:04.143Z,100299.67
2018-09-13T02:34:39.336Z,100298.20
2018-09-13T02:35:14.647Z,100303.62
2018-09-13T02:35:50.092Z,100302.29
2018-09-13T02:36:25.270Z,100299.89
2018-09-13T02:37:00.483Z,100307.16
2018-09-13T02:37:35.729Z,100304.07
2018-09-13T02:38:11.060Z,100305.50
2018-09-13T02:38:46.326Z,100304.75
2018-09-13T02:39:21.569Z,100304.35
2018-09-13T02:39:56.774Z,100303.52
2018-09-13T02:40:32.074Z,100306.69
2018-09-13T02:41:07.309Z,100301.92
2018-09-13T02:41:42.943Z,100303.52
2018-09-13T02:42:18.374Z,100298.75
2018-09-13T02:42:53.620Z,100299.96
2018-09-13T02:43:28.872Z,100301.83
2018-09-13T02:44:04.302Z,100302.58
2018-09-13T02:44:39.503Z,100298.28
2018-09-13T02:45:14.846Z,100295.66
2018-09-13T02:45:50.216Z,100300.42
2018-09-13T02:46:25.463Z,100299.43
2018-09-13T02:47:00.830Z,100299.15
2018-09-13T02:47:36.097Z,100293.23
2018-09-13T02:48:11.415Z,100296.44
2018-09-13T02:48:47.134Z,100295.69
2018-09-13T02:49:22.551Z,100292.04
2018-09-13T02:49:57.911Z,100296.30
2018-09-13T02:50:33.113Z,100297.00
2018-09-13T02:51:08.496Z,100293.60
2018-09-13T02:51:43.843Z,100300.92
2018-09-13T02:52:19.157Z,100300.14
2018-09-13T02:52:54.418Z,100289.21
2018-09-13T02:53:29.619Z,100290.36
2018-09-13T02:54:04.820Z,100292.05
2018-09-13T02:54:40.071Z,100294.37
2018-09-13T02:55:15.429Z,100291.85
2018-09-13T02:55:50.936Z,100288.30
2018-09-13T02:56:26.146Z,100289.16
2018-09-13T02:57:01.333Z,100302.87
2018-09-13T02:57:36.557Z,100295.14
2018-09-13T02:58:11.896Z,100295.33
2018-09-13T02:58:47.191Z,100299.91
2018-09-13T02:59:22.622Z,100304.64
2018-09-13T02:59:57.872Z,100303.92
2018-09-13T03:00:33.104Z,100300.09
2018-09-13T03:01:08.303Z,100304.39
2018-09-13T03:01:43.708Z,100306.16
2018-09-13T03:02:19.031Z,100304.48
2018-09-13T03:02:54.608Z,100306.91
2018-09-13T03:03:29.296Z,100306.19
2018-09-13T03:04:04.638Z,100307.20
2018-09-13T03:04:40.009Z,100297.30
2018-09-13T03:05:15.328Z,100300.95
2018-09-13T03:05:50.590Z,100288.62
2018-09-13T03:06:25.772Z,100294.41
2018-09-13T03:07:02.393Z,100294.51
2018-09-13T03:07:37.613Z,100293.38
2018-09-13T03:08:12.870Z,100292.08
2018-09-13T03:08:48.558Z,100291.61
2018-09-13T03:09:23.745Z,100295.53
2018-09-13T03:09:58.931Z,100281.55
2018-09-13T03:10:40.447Z,100285.38
2018-09-13T03:11:15.222Z,100284.82
2018-09-13T03:11:50.521Z,100285.28
2018-09-13T03:12:25.755Z,100283.23
2018-09-13T03:13:01.293Z,100286.12
2018-09-13T03:13:36.495Z,100289.20
2018-09-13T03:14:12.039Z,100288.36
2018-09-13T03:14:47.362Z,100280.23
2018-09-13T03:15:22.735Z,100283.98
2018-09-13T03:15:57.954Z,100287.31
2018-09-13T03:16:33.186Z,100289.20
2018-09-13T03:17:08.819Z,100286.31
2018-09-13T03:17:44.211Z,100283.31
2018-09-13T03:18:19.564Z,100283.98
2018-09-13T03:18:54.769Z,100284.23
2018-09-13T03:19:30.002Z,100284.53
2018-09-13T03:20:05.226Z,100281.64
2018-09-13T03:20:40.751Z,100280.91
2018-09-13T03:21:16.082Z,100276.33
2018-09-13T03:21:51.697Z,100283.52
2018-09-13T03:22:26.999Z,100275.49
2018-09-13T03:23:02.350Z,100278.66
2018-09-13T03:23:37.627Z,100281.66
2018-09-13T03:24:13.005Z,100276.24
2018-09-13T03:24:48.373Z,100275.78
2018-09-13T03:25:23.589Z,100271.95
2018-09-13T03:25:58.782Z,100273.88
2018-09-13T03:26:34.459Z,100266.04
2018-09-13T03:27:09.661Z,100272.68
2018-09-13T03:27:45.126Z,100272.30
2018-09-13T03:28:20.502Z,100273.52
2018-09-13T03:28:55.720Z,100271.47
2018-09-13T03:29:30.941Z,100273.61
2018-09-13T03:30:06.154Z,100273.23
2018-09-13T03:30:41.572Z,100273.61
2018-09-13T03:31:17.039Z,100268.17
2018-09-13T03:31:52.266Z,100274.84
2018-09-13T03:32:27.478Z,100283.88
2018-09-13T03:33:02.927Z,100279.88
2018-09-13T03:33:38.458Z,100281.83
2018-09-13T03:34:13.948Z,100282.69
2018-09-13T03:34:49.315Z,100282.69
2018-09-13T03:35:24.538Z,100281.27
2018-09-13T03:35:59.748Z,100284.56
2018-09-13T03:36:34.926Z,100289.70
2018-09-13T03:37:10.164Z,100283.99
2018-09-13T03:37:45.458Z,100286.79
2018-09-13T03:38:20.727Z,100288.00
2018-09-13T03:38:55.942Z,100289.22
2018-09-13T03:39:31.271Z,100295.38
2018-09-13T03:40:06.516Z,100289.49
2018-09-13T03:40:41.818Z,100291.64
2018-09-13T03:41:17.099Z,100293.03
2018-09-13T03:41:52.395Z,100289.70
2018-09-13T03:42:27.796Z,100293.72
2018-09-13T03:43:03.015Z,100287.55
2018-09-13T03:43:38.760Z,100293.12
2018-09-13T03:44:14.100Z,100283.63
2018-09-13T03:44:49.373Z,100284.09
2018-09-13T03:45:24.675Z,100288.27
2018-09-13T03:45:59.864Z,100282.41
2018-09-13T03:46:41.984Z,100284.17
2018-09-13T03:47:17.312Z,100283.63
2018-09-13T03:47:52.557Z,100281.03
2018-09-13T03:48:28.282Z,100282.14
2018-09-13T03:49:03.488Z,100280.55
2018-09-13T03:49:38.718Z,100279.53
2018-09-13T03:50:14.239Z,100283.65
2018-09-13T03:50:49.809Z,100280.45
2018-09-13T03:51:25.110Z,100281.13
2018-09-13T03:52:00.575Z,100276.16
2018-09-13T03:52:35.740Z,100272.91
2018-09-13T03:53:10.980Z,100277.09
2018-09-13T03:53:46.311Z,100275.91
2018-09-13T03:54:21.685Z,100273.30
2018-09-13T03:54:56.902Z,100270.48
2018-09-13T03:55:32.122Z,100273.76
2018-09-13T03:56:07.469Z,100271.14
2018-09-13T03:56:43.044Z,100269.25
2018-09-13T03:57:18.577Z,100272.71
2018-09-13T03:57:53.823Z,100264.87
2018-09-13T03:58:28.982Z,100271.87
2018-09-13T03:59:04.222Z,100271.87
2018-09-13T03:59:39.447Z,100268.53
2018-09-13T04:00:15.211Z,100273.67
2018-09-13T04:00:50.640Z,100267.86
2018-09-13T04:01:25.807Z,100268.31
2018-09-13T04:02:00.985Z,100266.83
2018-09-13T04:02:36.155Z,100274.13
2018-09-13T04:03:12.355Z,100265.25
2018-09-13T04:03:47.874Z,100265.16
2018-09-13T04:04:23.278Z,100269.44
2018-09-13T04:04:58.538Z,100263.84
2018-09-13T04:05:33.826Z,100271.39
2018-09-13T04:06:09.055Z,100266.84
2018-09-13T04:06:44.335Z,100274.67
2018-09-13T04:07:19.642Z,100271.98
2018-09-13T04:07:55.213Z,100264.61
2018-09-13T04:08:30.522Z,100274.77
2018-09-13T04:09:08.831Z,100272.36
2018-09-13T04:09:44.244Z,100269.08
2018-09-13T04:10:19.560Z,100272.92
2018-09-13T04:10:55.079Z,100274.77
2018-09-13T04:11:30.276Z,100280.00
2018-09-13T04:12:05.678Z,100280.20
2018-09-13T04:12:40.926Z,100283.91
2018-09-13T04:13:16.336Z,100286.61
2018-09-13T04:13:51.595Z,100283.53
2018-09-13T04:14:27.091Z,100285.88
2018-09-13T04:15:02.274Z,100289.52
2018-09-13T04:15:37.461Z,100288.85
2018-09-13T04:16:12.695Z,100289.34
2018-09-13T04:16:47.510Z,100286.83
2018-09-13T04:17:22.710Z,100284.21
2018-09-13T04:17:57.914Z,100287.07
2018-09-13T04:18:33.112Z,100284.45
2018-09-13T04:19:08.274Z,100289.80
2018-09-13T04:19:44.422Z,100283.83
2018-09-13T04:20:19.689Z,100286.05
2018-09-13T04:20:54.869Z,100288.13
2018-09-13T04:21:30.386Z,100288.75
2018-09-13T04:22:05.951Z,100284.95
2018-09-13T04:22:41.640Z,100286.98
2018-09-13T04:23:17.076Z,100278.05
2018-09-13T04:23:52.293Z,100283.16
2018-09-13T04:24:27.687Z,100280.66
2018-09-13T04:25:02.923Z,100280.75
2018-09-13T04:25:38.203Z,100276.91
2018-09-13T04:26:12.958Z,100278.40
2018-09-13T04:26:47.743Z,100274.77
2018-09-13T04:27:22.641Z,100272.06
2018-09-13T04:27:57.891Z,100279.06
2018-09-13T04:28:33.116Z,100273.92
2018-09-13T04:29:08.287Z,100274.67
2018-09-13T04:29:43.827Z,100279.34
2018-09-13T04:30:19.277Z,100278.69
2018-09-13T04:30:54.474Z,100280.92
2018-09-13T04:31:29.657Z,100283.91
2018-09-13T04:32:05.110Z,100279.05
2018-09-13T04:32:40.318Z,100278.77
2018-09-13T04:33:15.661Z,100281.75
2018-09-13T04:33:50.937Z,100278.69
2018-09-13T04:34:26.120Z,100284.11
2018-09-13T04:35:01.309Z,100282.14
2018-09-13T04:35:36.539Z,100281.39
2018-09-13T04:36:12.377Z,100282.61
2018-09-13T04:36:47.849Z,100275.23
2018-09-13T04:37:23.104Z,100276.62
2018-09-13T04:37:58.310Z,100275.16
2018-09-13T04:38:33.552Z,100271.70
2018-09-13T04:39:09.846Z,100269.92
2018-09-13T04:39:45.260Z,100273.30
2018-09-13T04:40:20.857Z,100270.09
2018-09-13T04:40:56.039Z,100270.09
2018-09-13T04:41:31.606Z,100274.48
2018-09-13T04:42:06.816Z,100272.62
2018-09-13T04:42:42.099Z,100272.54
2018-09-13T04:43:17.510Z,100265.92
2018-09-13T04:43:52.729Z,100275.06
2018-09-13T04:44:27.908Z,100266.01
2018-09-13T04:45:03.157Z,100276.00
2018-09-13T04:45:38.304Z,100271.98
2018-09-13T04:46:13.626Z,100277.30
2018-09-13T04:46:49.013Z,100281.77
2018-09-13T04:47:24.366Z,100266.77
2018-09-13T04:47:59.554Z,100276.08
2018-09-13T04:48:34.786Z,100280.47
2018-09-13T04:49:09.505Z,100278.88
2018-09-13T04:49:44.931Z,100284.77
2018-09-13T04:50:20.202Z,100267.87
2018-09-13T04:50:55.421Z,100281.22
2018-09-13T04:51:30.618Z,100281.14
2018-09-13T04:52:06.157Z,100279.36
2018-09-13T04:52:41.494Z,100278.59
2018-09-13T04:53:16.774Z,100276.38
2018-09-13T04:53:52.002Z,100287.08
2018-09-13T04:54:27.154Z,100286.99
2018-09-13T04:55:02.320Z,100284.94
2018-09-13T04:55:37.744Z,100281.85
2018-09-13T04:56:13.249Z,100284.39
2018-09-13T04:56:48.598Z,100289.04
2018-09-13T04:57:23.854Z,100282.80
2018-09-13T04:57:59.124Z,100288.50
2018-09-13T04:58:34.396Z,100289.89
2018-09-13T04:59:09.618Z,100289.05
2018-09-13T04:59:45.003Z,100292.13
2018-09-13T05:00:20.340Z,100296.89
2018-09-13T05:00:55.701Z,100297.82
2018-09-13T05:01:31.057Z,100295.75
2018-09-13T05:02:06.295Z,100302.03
2018-09-13T05:02:42.122Z,100300.81
2018-09-13T05:03:17.520Z,100296.34
2018-09-13T05:03:52.774Z,100295.88
2018-09-13T05:04:27.960Z,100288.39
2018-09-13T05:05:03.305Z,100299.60
2018-09-13T05:05:37.978Z,100302.21
2018-09-13T05:06:13.608Z,100295.52
2018-09-13T05:06:48.831Z,100291.13
2018-09-13T05:07:24.142Z,100294.19
2018-09-13T05:07:59.306Z,100296.89
2018-09-13T05:08:34.501Z,100294.66
2018-09-13T05:09:12.366Z,100301.28
2018-09-13T05:09:47.682Z,100304.83
2018-09-13T05:10:22.903Z,100296.52
2018-09-13T05:10:58.078Z,100294.28
2018-09-13T05:11:33.263Z,100299.05
2018-09-13T05:12:09.032Z,100298.58
2018-09-13T05:13:47.492Z,100290.92
2018-09-13T05:14:22.726Z,100294.47
2018-09-13T05:14:57.889Z,100294.00
2018-09-13T05:15:33.065Z,100287.30
2018-09-13T05:16:08.222Z,100282.16
2018-09-13T05:16:43.603Z,100284.39
2018-09-13T05:17:19.018Z,100282.45
2018-09-13T05:17:54.214Z,100281.31
2018-09-13T05:18:29.511Z,100280.94
2018-09-13T05:19:05.056Z,100276.92
2018-09-13T05:19:40.330Z,100274.23
2018-09-13T05:20:15.601Z,100275.32
2018-09-13T05:20:50.862Z,100279.16
2018-09-13T05:21:26.066Z,100277.11
2018-09-13T05:22:01.234Z,100279.62
2018-09-13T05:22:36.418Z,100284.39
2018-09-13T05:23:11.843Z,100276.17
2018-09-13T05:23:47.235Z,100271.16
2018-09-13T05:24:22.518Z,100269.47
2018-09-13T05:24:57.362Z,100267.23
2018-09-13T05:25:32.559Z,100272.36
2018-09-13T05:26:07.786Z,100277.00
2018-09-13T05:26:43.322Z,100273.00
2018-09-13T05:27:18.646Z,100273.46
2018-09-13T05:27:53.813Z,100275.32
2018-09-13T05:28:29.002Z,100274.69
2018-09-13T05:29:04.573Z,100277.20
2018-09-13T05:29:39.842Z,100282.34
2018-09-13T05:30:15.282Z,100279.81
2018-09-13T05:30:50.810Z,100282.34
2018-09-13T05:31:26.059Z,100286.81
2018-09-13T05:32:01.248Z,100288.13
2018-09-13T05:32:36.476Z,100286.91
2018-09-13T05:33:11.687Z,100286.61
2018-09-13T05:33:46.984Z,100284.37
2018-09-13T05:34:22.206Z,100281.97
2018-09-13T05:34:57.368Z,100284.39
2018-09-13T05:35:32.534Z,100284.59
2018-09-13T05:36:07.736Z,100285.16
2018-09-13T05:36:43.093Z,100284.22
2018-09-13T05:37:18.348Z,100282.62
2018-09-13T05:37:53.565Z,100285.23
2018-09-13T05:38:28.785Z,100285.70
2018-09-13T05:39:05.113Z,100282.62
2018-09-13T05:39:40.346Z,100284.11
2018-09-13T05:40:15.713Z,100282.91
2018-09-13T05:40:50.950Z,100279.08
2018-09-13T05:41:26.186Z,100287.20
2018-09-13T05:42:01.369Z,100284.59
2018-09-13T05:42:36.661Z,100288.59
2018-09-13T05:43:12.008Z,100279.91
2018-09-13T05:43:47.510Z,100280.38
2018-09-13T05:44:22.724Z,100278.42
2018-09-13T05:44:57.917Z,100277.11
2018-09-13T05:45:33.143Z,100278.20
2018-09-13T05:46:08.344Z,100280.18
2018-09-13T05:46:43.664Z,100276.89
2018-09-13T05:47:19.105Z,100283.98
2018-09-13T05:47:54.314Z,100281.20
2018-09-13T05:48:29.725Z,100281.84
2018-09-13T05:49:05.023Z,100288.50
2018-09-13T05:49:40.329Z,100285.88
2018-09-13T05:50:15.624Z,100288.75
2018-09-13T05:50:50.887Z,100293.42
2018-09-13T05:51:26.115Z,100291.82
2018-09-13T05:52:01.640Z,100291.82
2018-09-13T05:52:36.855Z,100293.50
2018-09-13T05:53:12.564Z,100293.50
2018-09-13T05:53:47.833Z,100292.20
2018-09-13T05:54:23.038Z,100295.88
2018-09-13T05:54:58.219Z,100297.45
2018-09-13T05:55:33.386Z,100300.73
2018-09-13T05:56:08.585Z,100291.30
2018-09-13T05:56:43.844Z,100299.05
2018-09-13T05:57:19.173Z,100297.66
2018-09-13T05:57:54.410Z,100295.39
2018-09-13T05:58:29.604Z,100294.45
2018-09-13T05:59:04.785Z,100296.23
2018-09-13T05:59:39.990Z,100299.22
2018-09-13T06:00:15.320Z,100294.66
2018-09-13T06:00:50.841Z,100292.12
2018-09-13T06:01:26.353Z,100295.50
2018-09-13T06:02:01.673Z,100294.37
2018-09-13T06:02:36.858Z,100269.56
2018-09-13T06:03:12.248Z,100289.59
2018-09-13T06:03:47.518Z,100289.05
2018-09-13T06:04:22.746Z,100289.05
2018-09-13T06:04:58.130Z,100287.73
2018-09-13T06:05:33.281Z,100286.05
2018-09-13T06:06:08.450Z,100283.16
2018-09-13T06:06:43.838Z,100285.97
2018-09-13T06:07:19.194Z,100287.83
2018-09-13T06:07:54.500Z,100287.64
2018-09-13T06:08:29.906Z,100289.58
2018-09-13T06:09:06.803Z,100294.63
2018-09-13T06:09:42.234Z,100291.64
2018-09-13T06:10:17.693Z,100293.41
2018-09-13T06:10:52.914Z,100299.30
2018-09-13T06:11:28.142Z,100305.00
2018-09-13T06:12:03.463Z,100301.02
2018-09-13T06:12:38.636Z,100309.82
2018-09-13T06:13:14.191Z,100299.94
2018-09-13T06:13:49.897Z,100305.63
2018-09-13T06:14:25.086Z,100305.16
2018-09-13T06:15:00.325Z,100310.67
2018-09-13T06:15:35.506Z,100306.38
2018-09-13T06:16:11.194Z,100306.38
2018-09-13T06:16:47.035Z,100307.69
2018-09-13T06:17:22.355Z,100307.05
2018-09-13T06:17:57.522Z,100310.02
2018-09-13T06:18:33.050Z,100305.75
2018-09-13T06:19:08.263Z,100311.71
2018-09-13T06:19:43.684Z,100304.78
2018-09-13T06:20:19.451Z,100307.15
2018-09-13T06:20:54.726Z,100313.36
2018-09-13T06:21:30.517Z,100313.58
2018-09-13T06:22:06.099Z,100308.53
2018-09-13T06:22:41.539Z,100313.22
2018-09-13T06:23:16.834Z,100310.67
2018-09-13T06:23:52.088Z,100304.23
2018-09-13T06:24:27.269Z,100306.29
2018-09-13T06:25:02.499Z,100303.59
2018-09-13T06:25:37.666Z,100306.92
2018-09-13T06:26:13.123Z,100308.05
2018-09-13T06:26:48.704Z,100306.54
2018-09-13T06:27:23.982Z,100302.41
2018-09-13T06:27:59.229Z,100306.81
2018-09-13T06:28:34.519Z,100298.52
2018-09-13T06:29:09.259Z,100292.53
2018-09-13T06:29:44.873Z,100297.48
2018-09-13T06:30:20.352Z,100301.67
2018-09-13T06:30:55.549Z,100298.25
2018-09-13T06:31:30.746Z,100291.98
2018-09-13T06:32:05.963Z,100291.34
2018-09-13T06:32:41.358Z,100292.25
2018-09-13T06:33:16.782Z,100297.94
2018-09-13T06:33:52.161Z,100290.16
2018-09-13T06:34:27.967Z,100292.13
2018-09-13T06:35:03.563Z,100297.17
2018-09-13T06:35:38.987Z,100297.27
2018-09-13T06:36:14.323Z,100299.05
2018-09-13T06:36:49.830Z,100299.77
2018-09-13T06:37:25.054Z,100295.59
2018-09-13T06:38:00.278Z,100298.45
2018-09-13T06:38:35.458Z,100299.05
2018-09-13T06:39:12.090Z,100302.29
2018-09-13T06:39:47.403Z,100297.27
2018-09-13T06:40:22.970Z,100301.77
2018-09-13T06:40:58.175Z,100300.52
2018-09-13T06:41:33.363Z,100303.62
2018-09-13T06:42:08.587Z,100305.28
2018-09-13T06:42:43.854Z,100306.31
2018-09-13T06:43:19.102Z,100304.07
2018-09-13T06:43:54.302Z,100305.10
2018-09-13T06:44:29.512Z,100301.08